Ana Sayfa
METAR-TAF:

METAR-TAF

Havaalanları :

Meriden-Markham Municipal Airport

Meriden, Connecticut, Amerika Birleşik Devletleri

Enlem: 41-30-35N, Boylam: 072-49-40W, yükseklik: 31 m

Güncel hava durumu gözlemi

Rapor saat 20:53 UTC de 21 dakika önce yapıldı.
Rüzgar kuzeybatıdan 5 kt
Sıcaklık 7°C
Nem 36%
Basınç 1027 hPa
Görüş mesafesi: 16.1 km
Açık gökyüzü

METAR: KMMK 242053Z AUTO 32005KT 10SM CLR 07/M07 A3033 RMK AO2 SLP272 T00671072 53010

Saat: 16:14 (21:14 UTC)


TAF: eksik

4.000'den fazla havaalanı için hava durumu gözlemleri ve tahminleri (METAR ve TAF raporları).

Kullanılabilir istasyonlar harita üzerinde sarı ve kırmızı noktalarla gösterilir.

İstasyonun adını görmek için fareyi noktanın üzerinde gezdirin.

Sonrasında hava gözlem ve tahminlerini görmek için tıklayın.

Haritayı değiştirmek için: yaklaştırmak için siyah artı işaretli yeşil düğmeye ve uzaklaştırmak için de eksi işaretli düğmeye hızla tıklayın; bitişik haritalar için yeşil okları kullanın.


METAR-TAF: